sensor_id;sensor_type;location;lat;lon;timestamp;pressure;altitude;pressure_sealevel;temperature;humidity
5500;BME280;2772;42.700;23.304;2023-04-16T00:00:21;94613.56;;;14.75;90.68
5500;BME280;2772;42.700;23.304;2023-04-16T00:02:47;94625.44;;;14.62;90.79
5500;BME280;2772;42.700;23.304;2023-04-16T00:05:14;94613.63;;;14.63;90.95
5500;BME280;2772;42.700;23.304;2023-04-16T00:07:41;94614.56;;;14.55;90.83
5500;BME280;2772;42.700;23.304;2023-04-16T00:10:08;94614.19;;;14.41;91.63
5500;BME280;2772;42.700;23.304;2023-04-16T00:12:36;94604.31;;;14.45;91.78
5500;BME280;2772;42.700;23.304;2023-04-16T00:15:03;94601.81;;;14.36;93.67
5500;BME280;2772;42.700;23.304;2023-04-16T00:17:29;94615.28;;;14.40;93.33
5500;BME280;2772;42.700;23.304;2023-04-16T00:19:56;94613.28;;;14.37;93.23
5500;BME280;2772;42.700;23.304;2023-04-16T00:22:23;94609.75;;;14.32;93.60
5500;BME280;2772;42.700;23.304;2023-04-16T00:24:49;94608.97;;;14.20;91.25
5500;BME280;2772;42.700;23.304;2023-04-16T00:27:17;94610.91;;;14.07;90.93
5500;BME280;2772;42.700;23.304;2023-04-16T00:29:45;94615.50;;;14.07;87.59
5500;BME280;2772;42.700;23.304;2023-04-16T00:32:12;94609.66;;;13.89;87.87
5500;BME280;2772;42.700;23.304;2023-04-16T00:34:39;94611.50;;;13.61;84.90
5500;BME280;2772;42.700;23.304;2023-04-16T00:37:05;94603.66;;;13.68;82.88
5500;BME280;2772;42.700;23.304;2023-04-16T00:39:32;94613.25;;;13.69;80.56
5500;BME280;2772;42.700;23.304;2023-04-16T00:41:59;94613.59;;;13.56;78.69
5500;BME280;2772;42.700;23.304;2023-04-16T00:44:26;94612.16;;;13.46;76.90
5500;BME280;2772;42.700;23.304;2023-04-16T00:46:55;94621.06;;;13.38;75.71
5500;BME280;2772;42.700;23.304;2023-04-16T00:49:22;94616.28;;;13.32;73.99
5500;BME280;2772;42.700;23.304;2023-04-16T00:51:49;94606.59;;;13.27;73.70
5500;BME280;2772;42.700;23.304;2023-04-16T00:54:16;94612.19;;;13.34;72.59
5500;BME280;2772;42.700;23.304;2023-04-16T00:56:43;94614.63;;;13.15;71.79
5500;BME280;2772;42.700;23.304;2023-04-16T00:59:10;94613.63;;;13.08;71.65
5500;BME280;2772;42.700;23.304;2023-04-16T01:01:37;94619.09;;;13.11;71.75
5500;BME280;2772;42.700;23.304;2023-04-16T01:04:05;94609.50;;;13.10;71.78
5500;BME280;2772;42.700;23.304;2023-04-16T01:06:32;94607.94;;;13.09;71.64
5500;BME280;2772;42.700;23.304;2023-04-16T01:08:59;94600.72;;;13.10;71.66
5500;BME280;2772;42.700;23.304;2023-04-16T01:11:26;94602.94;;;13.08;71.57
5500;BME280;2772;42.700;23.304;2023-04-16T01:13:52;94605.94;;;13.06;71.93
5500;BME280;2772;42.700;23.304;2023-04-16T01:16:19;94594.22;;;13.11;72.11
5500;BME280;2772;42.700;23.304;2023-04-16T01:18:46;94605.47;;;13.04;72.32
5500;BME280;2772;42.700;23.304;2023-04-16T01:21:14;94605.47;;;13.04;72.48
5500;BME280;2772;42.700;23.304;2023-04-16T01:23:40;94600.13;;;13.04;72.97
5500;BME280;2772;42.700;23.304;2023-04-16T01:26:07;94601.81;;;13.09;72.86
5500;BME280;2772;42.700;23.304;2023-04-16T01:28:34;94597.25;;;13.09;71.99
5500;BME280;2772;42.700;23.304;2023-04-16T01:31:00;94600.13;;;13.04;72.02
5500;BME280;2772;42.700;23.304;2023-04-16T01:33:27;94596.88;;;12.99;73.02
5500;BME280;2772;42.700;23.304;2023-04-16T01:35:54;94601.59;;;13.02;73.58
5500;BME280;2772;42.700;23.304;2023-04-16T01:38:22;94595.88;;;12.91;74.64
5500;BME280;2772;42.700;23.304;2023-04-16T01:40:49;94599.66;;;12.90;74.73
5500;BME280;2772;42.700;23.304;2023-04-16T01:43:15;94594.09;;;12.83;74.81
5500;BME280;2772;42.700;23.304;2023-04-16T01:45:42;94585.06;;;12.88;74.50
5500;BME280;2772;42.700;23.304;2023-04-16T01:48:09;94588.63;;;12.79;73.65
5500;BME280;2772;42.700;23.304;2023-04-16T01:50:36;94581.06;;;12.82;74.59
5500;BME280;2772;42.700;23.304;2023-04-16T01:53:02;94578.94;;;12.87;74.12
5500;BME280;2772;42.700;23.304;2023-04-16T01:55:31;94583.41;;;12.83;74.51
5500;BME280;2772;42.700;23.304;2023-04-16T01:57:58;94584.41;;;12.78;74.74
5500;BME280;2772;42.700;23.304;2023-04-16T02:00:25;94586.72;;;12.80;74.81
5500;BME280;2772;42.700;23.304;2023-04-16T02:02:52;94585.41;;;12.86;74.42
5500;BME280;2772;42.700;23.304;2023-04-16T02:05:18;94583.50;;;12.87;74.90
5500;BME280;2772;42.700;23.304;2023-04-16T02:07:45;94585.41;;;12.86;74.55
5500;BME280;2772;42.700;23.304;2023-04-16T02:10:12;94584.72;;;12.89;74.58
5500;BME280;2772;42.700;23.304;2023-04-16T02:12:40;94590.53;;;12.91;74.81
5500;BME280;2772;42.700;23.304;2023-04-16T02:15:07;94586.63;;;12.89;75.33
5500;BME280;2772;42.700;23.304;2023-04-16T02:17:34;94579.13;;;12.82;75.60
5500;BME280;2772;42.700;23.304;2023-04-16T02:20:01;94580.69;;;12.71;76.60
5500;BME280;2772;42.700;23.304;2023-04-16T02:22:29;94579.69;;;12.75;76.47
5500;BME280;2772;42.700;23.304;2023-04-16T02:24:56;94579.34;;;12.77;75.82
5500;BME280;2772;42.700;23.304;2023-04-16T02:27:23;94571.78;;;12.79;76.17
5500;BME280;2772;42.700;23.304;2023-04-16T02:29:51;94579.81;;;12.79;75.69
5500;BME280;2772;42.700;23.304;2023-04-16T02:32:18;94574.25;;;12.84;75.71
5500;BME280;2772;42.700;23.304;2023-04-16T02:34:45;94571.38;;;12.89;75.90
5500;BME280;2772;42.700;23.304;2023-04-16T02:37:11;94574.47;;;12.79;75.80
5500;BME280;2772;42.700;23.304;2023-04-16T02:39:39;94569.78;;;12.88;76.28
5500;BME280;2772;42.700;23.304;2023-04-16T02:42:07;94575.59;;;12.78;78.34
5500;BME280;2772;42.700;23.304;2023-04-16T02:44:33;94572.38;;;12.85;79.18
5500;BME280;2772;42.700;23.304;2023-04-16T02:47:01;94561.34;;;12.86;78.70
5500;BME280;2772;42.700;23.304;2023-04-16T02:49:28;94564.44;;;12.88;79.10
5500;BME280;2772;42.700;23.304;2023-04-16T02:51:55;94563.56;;;12.84;78.93
5500;BME280;2772;42.700;23.304;2023-04-16T02:54:22;94557.00;;;12.82;79.27
5500;BME280;2772;42.700;23.304;2023-04-16T02:56:48;94561.09;;;12.79;79.17
5500;BME280;2772;42.700;23.304;2023-04-16T02:59:15;94560.00;;;12.80;79.95
5500;BME280;2772;42.700;23.304;2023-04-16T03:01:42;94563.66;;;12.75;81.47
5500;BME280;2772;42.700;23.304;2023-04-16T03:04:10;94564.78;;;12.62;82.11
5500;BME280;2772;42.700;23.304;2023-04-16T03:06:36;94562.09;;;12.62;83.16
5500;BME280;2772;42.700;23.304;2023-04-16T03:09:03;94564.31;;;12.60;84.16
5500;BME280;2772;42.700;23.304;2023-04-16T03:11:30;94558.41;;;12.55;85.09
5500;BME280;2772;42.700;23.304;2023-04-16T03:13:56;94563.97;;;12.50;85.94
5500;BME280;2772;42.700;23.304;2023-04-16T03:16:23;94571.31;;;12.41;86.41
5500;BME280;2772;42.700;23.304;2023-04-16T03:18:50;94577.66;;;12.48;87.18
5500;BME280;2772;42.700;23.304;2023-04-16T03:21:18;94582.88;;;12.45;89.25
5500;BME280;2772;42.700;23.304;2023-04-16T03:23:45;94578.97;;;12.42;89.02
5500;BME280;2772;42.700;23.304;2023-04-16T03:26:11;94575.31;;;12.47;89.13
5500;BME280;2772;42.700;23.304;2023-04-16T03:28:38;94574.97;;;12.48;89.49
5500;BME280;2772;42.700;23.304;2023-04-16T03:31:05;94573.19;;;12.52;88.80
5500;BME280;2772;42.700;23.304;2023-04-16T03:33:31;94577.78;;;12.52;88.14
5500;BME280;2772;42.700;23.304;2023-04-16T03:35:58;94573.72;;;12.46;87.02
5500;BME280;2772;42.700;23.304;2023-04-16T03:38:26;94579.63;;;12.39;86.37
5500;BME280;2772;42.700;23.304;2023-04-16T03:40:53;94582.19;;;12.36;85.66
5500;BME280;2772;42.700;23.304;2023-04-16T03:43:19;94593.94;;;12.35;85.96
5500;BME280;2772;42.700;23.304;2023-04-16T03:45:46;94588.25;;;12.24;86.46
5500;BME280;2772;42.700;23.304;2023-04-16T03:48:13;94585.03;;;12.19;88.01
5500;BME280;2772;42.700;23.304;2023-04-16T03:50:44;94585.91;;;12.23;87.69
5500;BME280;2772;42.700;23.304;2023-04-16T03:53:10;94595.25;;;12.17;87.61
5500;BME280;2772;42.700;23.304;2023-04-16T03:55:39;94594.09;;;12.06;88.16
5500;BME280;2772;42.700;23.304;2023-04-16T03:58:05;94590.25;;;11.74;89.58
5500;BME280;2772;42.700;23.304;2023-04-16T04:00:32;94586.59;;;11.79;90.88
5500;BME280;2772;42.700;23.304;2023-04-16T04:02:59;94591.69;;;11.72;92.95
5500;BME280;2772;42.700;23.304;2023-04-16T04:05:26;94587.47;;;11.71;94.21
5500;BME280;2772;42.700;23.304;2023-04-16T04:07:52;94593.34;;;11.56;95.36
5500;BME280;2772;42.700;23.304;2023-04-16T04:10:19;94595.81;;;11.61;95.57
5500;BME280;2772;42.700;23.304;2023-04-16T04:12:47;94597.44;;;11.53;96.98
5500;BME280;2772;42.700;23.304;2023-04-16T04:15:14;94603.28;;;11.47;97.18
5500;BME280;2772;42.700;23.304;2023-04-16T04:17:40;94593.03;;;11.57;98.39
5500;BME280;2772;42.700;23.304;2023-04-16T04:20:08;94603.34;;;11.67;96.20
5500;BME280;2772;42.700;23.304;2023-04-16T04:22:34;94600.81;;;11.71;94.93
5500;BME280;2772;42.700;23.304;2023-04-16T04:25:01;94598.22;;;11.83;92.21
5500;BME280;2772;42.700;23.304;2023-04-16T04:27:28;94609.72;;;11.95;90.87
5500;BME280;2772;42.700;23.304;2023-04-16T04:29:56;94615.75;;;12.04;90.16
5500;BME280;2772;42.700;23.304;2023-04-16T04:32:23;94615.53;;;11.97;90.48
5500;BME280;2772;42.700;23.304;2023-04-16T04:34:50;94618.69;;;12.11;89.34
5500;BME280;2772;42.700;23.304;2023-04-16T04:37:16;94623.72;;;12.13;88.33
5500;BME280;2772;42.700;23.304;2023-04-16T04:39:43;94620.38;;;12.16;87.69
5500;BME280;2772;42.700;23.304;2023-04-16T04:42:10;94621.88;;;12.25;86.60
5500;BME280;2772;42.700;23.304;2023-04-16T04:44:37;94621.56;;;12.06;87.00
5500;BME280;2772;42.700;23.304;2023-04-16T04:47:05;94621.75;;;12.22;86.62
5500;BME280;2772;42.700;23.304;2023-04-16T04:49:31;94621.00;;;12.33;86.00
5500;BME280;2772;42.700;23.304;2023-04-16T04:51:58;94627.13;;;12.34;86.24
5500;BME280;2772;42.700;23.304;2023-04-16T04:54:25;94635.78;;;12.31;86.42
5500;BME280;2772;42.700;23.304;2023-04-16T04:56:52;94624.44;;;12.34;86.10
5500;BME280;2772;42.700;23.304;2023-04-16T04:59:19;94624.25;;;12.39;86.05
5500;BME280;2772;42.700;23.304;2023-04-16T05:01:46;94619.03;;;12.42;86.03
5500;BME280;2772;42.700;23.304;2023-04-16T05:04:14;94623.25;;;12.43;85.26
5500;BME280;2772;42.700;23.304;2023-04-16T05:06:41;94625.59;;;12.45;85.18
5500;BME280;2772;42.700;23.304;2023-04-16T05:09:07;94633.63;;;12.45;84.00
5500;BME280;2772;42.700;23.304;2023-04-16T05:11:36;94634.00;;;12.35;84.27
5500;BME280;2772;42.700;23.304;2023-04-16T05:14:02;94629.47;;;12.35;83.73
5500;BME280;2772;42.700;23.304;2023-04-16T05:16:29;94626.91;;;12.39;82.70
5500;BME280;2772;42.700;23.304;2023-04-16T05:18:56;94628.13;;;12.41;86.11
5500;BME280;2772;42.700;23.304;2023-04-16T05:21:24;94627.28;;;12.49;85.73
5500;BME280;2772;42.700;23.304;2023-04-16T05:23:51;94625.41;;;12.50;82.77
5500;BME280;2772;42.700;23.304;2023-04-16T05:26:18;94623.53;;;12.50;82.56
5500;BME280;2772;42.700;23.304;2023-04-16T05:28:45;94619.28;;;12.61;82.25
5500;BME280;2772;42.700;23.304;2023-04-16T05:31:11;94626.56;;;12.73;82.03
5500;BME280;2772;42.700;23.304;2023-04-16T05:33:38;94624.16;;;12.80;89.72
5500;BME280;2772;42.700;23.304;2023-04-16T05:36:05;94623.91;;;12.85;87.44
5500;BME280;2772;42.700;23.304;2023-04-16T05:38:33;94627.50;;;12.89;87.49
5500;BME280;2772;42.700;23.304;2023-04-16T05:41:00;94624.38;;;12.99;86.98
5500;BME280;2772;42.700;23.304;2023-04-16T05:43:26;94620.19;;;13.10;90.82
5500;BME280;2772;42.700;23.304;2023-04-16T05:45:53;94618.63;;;13.21;94.09
5500;BME280;2772;42.700;23.304;2023-04-16T05:48:20;94619.28;;;13.18;89.10
5500;BME280;2772;42.700;23.304;2023-04-16T05:50:47;94617.75;;;13.17;88.20
5500;BME280;2772;42.700;23.304;2023-04-16T05:53:14;94618.84;;;13.16;85.06
5500;BME280;2772;42.700;23.304;2023-04-16T05:55:44;94619.28;;;13.18;84.91
5500;BME280;2772;42.700;23.304;2023-04-16T05:58:11;94622.44;;;13.20;84.78
5500;BME280;2772;42.700;23.304;2023-04-16T06:00:38;94619.09;;;13.11;85.79
5500;BME280;2772;42.700;23.304;2023-04-16T06:03:05;94623.16;;;12.85;87.75
5500;BME280;2772;42.700;23.304;2023-04-16T06:05:31;94626.41;;;13.02;87.80
5500;BME280;2772;42.700;23.304;2023-04-16T06:07:58;94622.75;;;13.07;100.00
5500;BME280;2772;42.700;23.304;2023-04-16T06:10:25;94620.41;;;13.17;100.00
5500;BME280;2772;42.700;23.304;2023-04-16T06:12:53;94621.97;;;13.18;94.73
5500;BME280;2772;42.700;23.304;2023-04-16T06:15:19;94615.72;;;13.38;100.00
5500;BME280;2772;42.700;23.304;2023-04-16T06:17:46;94619.19;;;13.27;97.54
5500;BME280;2772;42.700;23.304;2023-04-16T06:20:13;94618.19;;;13.31;92.40
5500;BME280;2772;42.700;23.304;2023-04-16T06:22:40;94617.41;;;13.43;89.50
5500;BME280;2772;42.700;23.304;2023-04-16T06:25:07;94618.84;;;13.52;90.19
5500;BME280;2772;42.700;23.304;2023-04-16T06:27:34;94618.25;;;13.71;99.37
5500;BME280;2772;42.700;23.304;2023-04-16T06:30:03;94617.13;;;13.84;94.76
5500;BME280;2772;42.700;23.304;2023-04-16T06:32:30;94615.47;;;13.79;85.27
5500;BME280;2772;42.700;23.304;2023-04-16T06:34:57;94613.72;;;13.99;87.59
5500;BME280;2772;42.700;23.304;2023-04-16T06:37:23;94612.00;;;14.18;88.23
5500;BME280;2772;42.700;23.304;2023-04-16T06:39:50;94614.66;;;14.30;88.00
5500;BME280;2772;42.700;23.304;2023-04-16T06:42:17;94613.28;;;14.37;89.93
5500;BME280;2772;42.700;23.304;2023-04-16T06:44:43;94617.97;;;14.40;82.37
5500;BME280;2772;42.700;23.304;2023-04-16T06:47:11;94622.34;;;14.32;85.14
5500;BME280;2772;42.700;23.304;2023-04-16T06:49:38;94621.09;;;14.42;89.05
5500;BME280;2772;42.700;23.304;2023-04-16T06:52:05;94619.03;;;14.51;85.08
5500;BME280;2772;42.700;23.304;2023-04-16T06:54:32;94614.13;;;14.53;81.23
5500;BME280;2772;42.700;23.304;2023-04-16T06:56:59;94621.56;;;14.59;80.21
5500;BME280;2772;42.700;23.304;2023-04-16T06:59:25;94615.41;;;14.59;84.72
5500;BME280;2772;42.700;23.304;2023-04-16T07:01:52;94605.66;;;14.66;82.10
5500;BME280;2772;42.700;23.304;2023-04-16T07:04:20;94613.31;;;14.80;81.52
5500;BME280;2772;42.700;23.304;2023-04-16T07:06:47;94610.69;;;14.83;80.63
5500;BME280;2772;42.700;23.304;2023-04-16T07:09:13;94610.09;;;14.90;84.77
5500;BME280;2772;42.700;23.304;2023-04-16T07:11:41;94607.59;;;14.81;85.32
5500;BME280;2772;42.700;23.304;2023-04-16T07:14:08;94614.25;;;14.72;89.56
5500;BME280;2772;42.700;23.304;2023-04-16T07:16:34;94611.31;;;14.77;89.96
5500;BME280;2772;42.700;23.304;2023-04-16T07:19:02;94615.13;;;14.91;90.54
5500;BME280;2772;42.700;23.304;2023-04-16T07:21:30;94612.03;;;15.05;91.19
5500;BME280;2772;42.700;23.304;2023-04-16T07:23:57;94613.22;;;15.07;88.45
5500;BME280;2772;42.700;23.304;2023-04-16T07:26:23;94611.59;;;15.18;87.91
5500;BME280;2772;42.700;23.304;2023-04-16T07:28:50;94610.63;;;15.26;87.59
5500;BME280;2772;42.700;23.304;2023-04-16T07:31:17;94606.47;;;14.98;85.17
5500;BME280;2772;42.700;23.304;2023-04-16T07:33:43;94606.66;;;15.05;89.37
5500;BME280;2772;42.700;23.304;2023-04-16T07:36:10;94608.66;;;15.08;90.52
5500;BME280;2772;42.700;23.304;2023-04-16T07:38:38;94610.38;;;15.16;86.83
5500;BME280;2772;42.700;23.304;2023-04-16T07:41:06;94611.25;;;15.20;84.97
5500;BME280;2772;42.700;23.304;2023-04-16T07:43:33;94620.22;;;15.27;86.07
5500;BME280;2772;42.700;23.304;2023-04-16T07:46:00;94609.50;;;15.27;83.94
5500;BME280;2772;42.700;23.304;2023-04-16T07:48:26;94613.78;;;15.44;87.26
5500;BME280;2772;42.700;23.304;2023-04-16T07:50:53;94617.97;;;15.60;85.28
5500;BME280;2772;42.700;23.304;2023-04-16T07:53:20;94614.25;;;15.65;79.96
5500;BME280;2772;42.700;23.304;2023-04-16T07:55:48;94605.53;;;15.87;81.58
5500;BME280;2772;42.700;23.304;2023-04-16T07:58:14;94609.50;;;15.93;79.85
5500;BME280;2772;42.700;23.304;2023-04-16T08:00:41;94605.25;;;15.92;79.47
5500;BME280;2772;42.700;23.304;2023-04-16T08:03:08;94606.84;;;16.12;85.07
5500;BME280;2772;42.700;23.304;2023-04-16T08:05:35;94605.69;;;16.32;81.22
5500;BME280;2772;42.700;23.304;2023-04-16T08:08:01;94607.69;;;16.35;78.31
5500;BME280;2772;42.700;23.304;2023-04-16T08:10:28;94608.53;;;16.20;80.67
5500;BME280;2772;42.700;23.304;2023-04-16T08:12:56;94597.06;;;16.42;79.30
5500;BME280;2772;42.700;23.304;2023-04-16T08:15:23;94594.72;;;16.60;80.41
5500;BME280;2772;42.700;23.304;2023-04-16T08:17:49;94601.94;;;16.75;78.39
5500;BME280;2772;42.700;23.304;2023-04-16T08:20:16;94592.44;;;16.81;75.04
5500;BME280;2772;42.700;23.304;2023-04-16T08:22:43;94602.59;;;16.91;76.47
5500;BME280;2772;42.700;23.304;2023-04-16T08:25:10;94597.66;;;16.93;75.38
5500;BME280;2772;42.700;23.304;2023-04-16T08:27:37;94600.44;;;16.77;76.31
5500;BME280;2772;42.700;23.304;2023-04-16T08:30:06;94584.56;;;16.91;77.87
5500;BME280;2772;42.700;23.304;2023-04-16T08:32:33;94585.81;;;16.97;73.86
5500;BME280;2772;42.700;23.304;2023-04-16T08:35:00;94580.53;;;16.82;74.51
5500;BME280;2772;42.700;23.304;2023-04-16T08:37:27;94578.38;;;16.91;76.25
5500;BME280;2772;42.700;23.304;2023-04-16T08:39:53;94576.97;;;16.97;74.97
5500;BME280;2772;42.700;23.304;2023-04-16T08:42:24;94572.72;;;16.96;74.86
5500;BME280;2772;42.700;23.304;2023-04-16T08:45:02;94566.81;;;17.09;75.59
5500;BME280;2772;42.700;23.304;2023-04-16T08:47:33;94569.16;;;17.14;73.93
5500;BME280;2772;42.700;23.304;2023-04-16T08:50:02;94579.41;;;17.28;70.82
5500;BME280;2772;42.700;23.304;2023-04-16T08:52:29;94571.50;;;17.38;70.05
5500;BME280;2772;42.700;23.304;2023-04-16T08:55:02;94571.81;;;17.60;69.61
5500;BME280;2772;42.700;23.304;2023-04-16T08:57:37;94572.91;;;17.81;68.42
5500;BME280;2772;42.700;23.304;2023-04-16T09:00:07;94567.72;;;17.69;63.70
5500;BME280;2772;42.700;23.304;2023-04-16T09:02:35;94567.34;;;17.71;66.01
5500;BME280;2772;42.700;23.304;2023-04-16T09:05:04;94564.78;;;17.78;64.13
5500;BME280;2772;42.700;23.304;2023-04-16T09:07:33;94556.31;;;17.79;64.29
5500;BME280;2772;42.700;23.304;2023-04-16T09:10:00;94565.69;;;17.89;62.21
5500;BME280;2772;42.700;23.304;2023-04-16T09:12:27;94555.31;;;17.91;62.75
5500;BME280;2772;42.700;23.304;2023-04-16T09:14:55;94558.91;;;17.98;63.57
5500;BME280;2772;42.700;23.304;2023-04-16T09:17:24;94553.88;;;17.97;66.08
5500;BME280;2772;42.700;23.304;2023-04-16T09:19:52;94561.66;;;18.05;66.29
5500;BME280;2772;42.700;23.304;2023-04-16T09:22:19;94557.13;;;17.83;67.18
5500;BME280;2772;42.700;23.304;2023-04-16T09:24:46;94550.34;;;17.93;67.01
5500;BME280;2772;42.700;23.304;2023-04-16T09:27:13;94550.47;;;18.03;66.45
5500;BME280;2772;42.700;23.304;2023-04-16T09:29:41;94549.50;;;18.18;64.12
5500;BME280;2772;42.700;23.304;2023-04-16T09:32:09;94550.19;;;18.12;62.92
5500;BME280;2772;42.700;23.304;2023-04-16T09:34:54;94550.94;;;18.09;64.17
5500;BME280;2772;42.700;23.304;2023-04-16T09:37:21;94554.78;;;18.08;63.82
5500;BME280;2772;42.700;23.304;2023-04-16T09:39:52;94555.09;;;18.03;64.18
5500;BME280;2772;42.700;23.304;2023-04-16T09:42:20;94550.69;;;18.21;64.17
5500;BME280;2772;42.700;23.304;2023-04-16T09:44:48;94543.66;;;18.13;60.66
5500;BME280;2772;42.700;23.304;2023-04-16T09:47:15;94546.34;;;18.13;61.01
5500;BME280;2772;42.700;23.304;2023-04-16T09:49:42;94545.16;;;18.40;61.46
5500;BME280;2772;42.700;23.304;2023-04-16T09:52:13;94540.72;;;18.54;60.42
5500;BME280;2772;42.700;23.304;2023-04-16T09:54:45;94543.50;;;18.32;59.10
5500;BME280;2772;42.700;23.304;2023-04-16T09:57:12;94538.75;;;18.51;62.79
5500;BME280;2772;42.700;23.304;2023-04-16T09:59:39;94539.28;;;18.64;61.31
5500;BME280;2772;42.700;23.304;2023-04-16T10:02:06;94540.34;;;18.59;61.66
5500;BME280;2772;42.700;23.304;2023-04-16T10:04:44;94539.88;;;18.47;60.88
5500;BME280;2772;42.700;23.304;2023-04-16T10:07:12;94520.97;;;18.47;63.42
5500;BME280;2772;42.700;23.304;2023-04-16T10:09:39;94516.44;;;18.58;60.43
5500;BME280;2772;42.700;23.304;2023-04-16T10:12:06;94524.16;;;18.59;60.55
5500;BME280;2772;42.700;23.304;2023-04-16T10:14:33;94524.66;;;18.72;58.80
5500;BME280;2772;42.700;23.304;2023-04-16T10:17:01;94513.91;;;18.75;60.90
5500;BME280;2772;42.700;23.304;2023-04-16T10:19:29;94519.78;;;18.81;60.01
5500;BME280;2772;42.700;23.304;2023-04-16T10:21:57;94515.50;;;18.80;57.84
5500;BME280;2772;42.700;23.304;2023-04-16T10:24:25;94510.22;;;18.90;58.41
5500;BME280;2772;42.700;23.304;2023-04-16T10:26:53;94508.00;;;19.07;59.21
5500;BME280;2772;42.700;23.304;2023-04-16T10:29:20;94504.13;;;19.01;57.11
5500;BME280;2772;42.700;23.304;2023-04-16T10:31:48;94505.78;;;19.19;56.46
5500;BME280;2772;42.700;23.304;2023-04-16T10:34:16;94507.78;;;19.26;56.34
5500;BME280;2772;42.700;23.304;2023-04-16T10:36:47;94504.66;;;19.20;55.64
5500;BME280;2772;42.700;23.304;2023-04-16T10:39:17;94500.03;;;19.21;56.08
5500;BME280;2772;42.700;23.304;2023-04-16T10:41:46;94495.69;;;19.06;57.00
5500;BME280;2772;42.700;23.304;2023-04-16T10:44:16;94497.25;;;19.10;57.38
5500;BME280;2772;42.700;23.304;2023-04-16T10:46:43;94497.13;;;18.96;56.22
5500;BME280;2772;42.700;23.304;2023-04-16T10:49:14;94500.63;;;19.00;56.14
5500;BME280;2772;42.700;23.304;2023-04-16T10:51:51;94501.09;;;19.09;56.35
5500;BME280;2772;42.700;23.304;2023-04-16T10:54:20;94499.16;;;19.06;57.29
5500;BME280;2772;42.700;23.304;2023-04-16T10:56:48;94490.78;;;19.25;56.44
5500;BME280;2772;42.700;23.304;2023-04-16T10:59:18;94484.09;;;19.59;56.76
5500;BME280;2772;42.700;23.304;2023-04-16T11:01:46;94482.53;;;19.58;56.04
5500;BME280;2772;42.700;23.304;2023-04-16T11:04:27;94474.38;;;19.48;56.75
5500;BME280;2772;42.700;23.304;2023-04-16T11:07:02;94474.03;;;19.53;54.52
5500;BME280;2772;42.700;23.304;2023-04-16T11:09:52;94480.94;;;19.50;54.52
5500;BME280;2772;42.700;23.304;2023-04-16T11:12:22;94479.09;;;19.58;54.41
5500;BME280;2772;42.700;23.304;2023-04-16T11:14:52;94469.75;;;19.48;53.87
5500;BME280;2772;42.700;23.304;2023-04-16T11:17:20;94461.34;;;19.67;53.79
5500;BME280;2772;42.700;23.304;2023-04-16T11:19:47;94466.03;;;19.77;53.68
5500;BME280;2772;42.700;23.304;2023-04-16T11:22:16;94459.50;;;19.85;53.20
5500;BME280;2772;42.700;23.304;2023-04-16T11:24:43;94454.09;;;19.82;53.09
5500;BME280;2772;42.700;23.304;2023-04-16T11:27:13;94447.47;;;19.69;53.34
5500;BME280;2772;42.700;23.304;2023-04-16T11:29:41;94448.25;;;19.73;53.47
5500;BME280;2772;42.700;23.304;2023-04-16T11:32:08;94445.63;;;19.90;52.80
5500;BME280;2772;42.700;23.304;2023-04-16T11:34:42;94445.66;;;20.01;53.41
5500;BME280;2772;42.700;23.304;2023-04-16T11:37:10;94448.38;;;20.08;52.90
5500;BME280;2772;42.700;23.304;2023-04-16T11:39:47;94437.97;;;20.03;52.58
5500;BME280;2772;42.700;23.304;2023-04-16T11:42:18;94426.81;;;20.18;51.97
5500;BME280;2772;42.700;23.304;2023-04-16T11:44:50;94425.28;;;20.21;50.57
5500;BME280;2772;42.700;23.304;2023-04-16T11:47:17;94427.59;;;20.33;49.43
5500;BME280;2772;42.700;23.304;2023-04-16T11:49:44;94432.25;;;20.36;49.80
5500;BME280;2772;42.700;23.304;2023-04-16T11:52:10;94427.63;;;20.29;49.30
5500;BME280;2772;42.700;23.304;2023-04-16T11:54:37;94424.16;;;20.32;49.36
5500;BME280;2772;42.700;23.304;2023-04-16T11:57:04;94415.63;;;20.27;49.74
5500;BME280;2772;42.700;23.304;2023-04-16T11:59:30;94419.47;;;20.22;49.81
5500;BME280;2772;42.700;23.304;2023-04-16T12:01:59;94412.16;;;20.23;50.33
5500;BME280;2772;42.700;23.304;2023-04-16T12:04:26;94407.50;;;20.23;50.78
5500;BME280;2772;42.700;23.304;2023-04-16T12:07:06;94405.56;;;20.34;50.04
5500;BME280;2772;42.700;23.304;2023-04-16T12:09:33;94392.06;;;20.24;50.11
5500;BME280;2772;42.700;23.304;2023-04-16T12:12:00;94395.53;;;20.24;50.84
5500;BME280;2772;42.700;23.304;2023-04-16T12:14:27;94392.47;;;20.29;50.27
5500;BME280;2772;42.700;23.304;2023-04-16T12:16:54;94392.06;;;20.41;49.84
5500;BME280;2772;42.700;23.304;2023-04-16T12:19:22;94378.94;;;20.54;49.67
5500;BME280;2772;42.700;23.304;2023-04-16T12:21:49;94377.38;;;20.67;49.84
5500;BME280;2772;42.700;23.304;2023-04-16T12:24:17;94383.94;;;20.48;49.40
5500;BME280;2772;42.700;23.304;2023-04-16T12:26:51;94377.38;;;20.78;49.72
5500;BME280;2772;42.700;23.304;2023-04-16T12:29:21;94369.25;;;20.88;48.62
5500;BME280;2772;42.700;23.304;2023-04-16T12:31:49;94370.00;;;20.92;49.47
5500;BME280;2772;42.700;23.304;2023-04-16T12:34:17;94368.13;;;20.72;48.87
5500;BME280;2772;42.700;23.304;2023-04-16T12:36:47;94356.88;;;20.48;49.70
5500;BME280;2772;42.700;23.304;2023-04-16T12:39:14;94364.25;;;20.59;49.69
5500;BME280;2772;42.700;23.304;2023-04-16T12:41:42;94367.72;;;20.38;50.17
5500;BME280;2772;42.700;23.304;2023-04-16T12:44:10;94357.28;;;20.29;50.89
5500;BME280;2772;42.700;23.304;2023-04-16T12:46:38;94363.09;;;20.24;50.47
5500;BME280;2772;42.700;23.304;2023-04-16T12:49:05;94359.13;;;19.97;51.52
5500;BME280;2772;42.700;23.304;2023-04-16T12:51:33;94359.56;;;20.03;52.96
5500;BME280;2772;42.700;23.304;2023-04-16T12:54:03;94368.03;;;20.01;52.58
5500;BME280;2772;42.700;23.304;2023-04-16T12:56:32;94359.53;;;19.96;51.94
5500;BME280;2772;42.700;23.304;2023-04-16T12:58:59;94356.06;;;19.92;53.55
5500;BME280;2772;42.700;23.304;2023-04-16T13:01:25;94354.50;;;19.87;52.40
5500;BME280;2772;42.700;23.304;2023-04-16T13:03:52;94352.16;;;19.79;54.98
5500;BME280;2772;42.700;23.304;2023-04-16T13:06:19;94345.97;;;19.75;55.77
5500;BME280;2772;42.700;23.304;2023-04-16T13:08:46;94352.09;;;19.65;58.78
5500;BME280;2772;42.700;23.304;2023-04-16T13:11:14;94343.97;;;19.54;60.45